Time;durP1;ratioP1;P1;durP2;ratioP2;P2;SDS_P1;SDS_P2;PMS_P1;PMS_P2;Temp;Humidity;BMP_temperature;BMP_pressure;BME280_temperature;BME280_humidity;BME280_pressure;Samples;Min_cycle;Max_cycle;Signal;HPM_P1;HPM_P2
2022/01/05 00:00:06;;;;;;;;;;;23.30;99.90;;;;;;5092450;28;20367;-72
2022/01/05 00:02:33;;;;;;;;;;;23.20;99.90;;;;;;5092389;28;19915;-72
2022/01/05 00:05:00;;;;;;;;;;;23.20;99.90;;;;;;5092440;28;19938;-73
2022/01/05 00:07:26;;;;;;;;;;;23.30;99.90;;;;;;5079134;28;19915;-72
2022/01/05 00:09:53;;;;;;;;;;;23.30;99.90;;;;;;5075037;28;19993;-72
2022/01/05 00:12:20;;;;;;;;;;;23.40;99.90;;;;;;5075865;28;20252;-72
2022/01/05 00:14:46;;;;;;;;;;;23.50;99.90;;;;;;5076070;28;19908;-72
2022/01/05 00:17:13;;;;;;;;;;;23.50;99.90;;;;;;5075887;28;19970;-71
2022/01/05 00:19:43;;;;;;;;;;;23.50;99.90;;;;;;5076121;28;19912;-72
2022/01/05 00:22:11;;;;;;;;;;;23.50;99.90;;;;;;5075599;28;19909;-72
2022/01/05 00:24:38;;;;;;;;;;;23.60;99.90;;;;;;5075168;28;19962;-72
2022/01/05 00:27:04;;;;;;;;;;;23.80;99.90;;;;;;5075320;28;19908;-72
2022/01/05 00:29:31;;;;;;;;;;;23.80;99.90;;;;;;5075225;28;19908;-72
2022/01/05 00:31:58;;;;;;;;;;;23.60;99.90;;;;;;5075566;28;19915;-72
2022/01/05 00:34:24;;;;;;;;;;;23.60;99.90;;;;;;5075570;28;20308;-72
2022/01/05 00:36:51;;;;;;;;;;;23.40;99.90;;;;;;5074171;28;19916;-72
2022/01/05 00:39:18;;;;;;;;;;;23.40;99.90;;;;;;5107861;28;19908;-72
2022/01/05 00:41:44;;;;;;;;;;;23.30;99.90;;;;;;5075586;28;20050;-72
2022/01/05 00:44:11;;;;;;;;;;;23.40;99.90;;;;;;5075185;28;19962;-72
2022/01/05 00:46:37;;;;;;;;;;;23.40;99.90;;;;;;5075343;28;19909;-72
2022/01/05 00:49:04;;;;;;;;;;;23.40;99.90;;;;;;5075347;28;19908;-72
2022/01/05 00:51:31;;;;;;;;;;;23.60;99.90;;;;;;5075233;28;19909;-72
2022/01/05 00:53:57;;;;;;;;;;;23.60;99.90;;;;;;5074829;28;20365;-72
2022/01/05 00:56:24;;;;;;;;;;;23.80;99.90;;;;;;5075107;28;19908;-72
2022/01/05 00:58:51;;;;;;;;;;;23.70;99.90;;;;;;5074978;28;19916;-72
2022/01/05 01:01:17;;;;;;;;;;;23.70;99.90;;;;;;5074531;28;19951;-72
2022/01/05 01:03:44;;;;;;;;;;;23.80;99.90;;;;;;5075590;28;19982;-72
2022/01/05 01:06:11;;;;;;;;;;;23.80;99.90;;;;;;5074443;28;20420;-71
2022/01/05 01:08:37;;;;;;;;;;;24.00;99.90;;;;;;5074768;28;20331;-72
2022/01/05 01:11:04;;;;;;;;;;;24.00;99.90;;;;;;5074638;28;19921;-72
2022/01/05 01:13:32;;;;;;;;;;;24.00;99.90;;;;;;5074187;28;19909;-72
2022/01/05 01:15:58;;;;;;;;;;;24.20;99.90;;;;;;5074693;28;19915;-73
2022/01/05 01:18:25;;;;;;;;;;;24.50;99.90;;;;;;5074684;28;19924;-72
2022/01/05 01:20:52;;;;;;;;;;;24.40;99.90;;;;;;5073434;28;19975;-72
2022/01/05 01:23:21;;;;;;;;;;;24.30;99.90;;;;;;5074508;28;19912;-72
2022/01/05 01:25:48;;;;;;;;;;;24.20;99.90;;;;;;5074581;28;19916;-72
2022/01/05 01:28:15;;;;;;;;;;;24.20;99.90;;;;;;5074554;28;19909;-71
2022/01/05 01:30:42;;;;;;;;;;;24.30;99.90;;;;;;5074396;28;19916;-71
2022/01/05 01:33:09;;;;;;;;;;;24.30;99.90;;;;;;5074417;28;19986;-72
2022/01/05 01:35:35;;;;;;;;;;;24.20;99.90;;;;;;5074340;28;19916;-71
2022/01/05 01:38:02;;;;;;;;;;;24.00;99.90;;;;;;5074143;28;19916;-72
2022/01/05 01:40:29;;;;;;;;;;;23.80;99.90;;;;;;5074209;28;19923;-73
2022/01/05 01:42:55;;;;;;;;;;;23.70;99.90;;;;;;5074252;28;19909;-71
2022/01/05 01:45:22;;;;;;;;;;;23.60;99.90;;;;;;5074368;28;20279;-72
2022/01/05 01:47:49;;;;;;;;;;;23.60;99.90;;;;;;5073899;28;19909;-72
2022/01/05 01:50:16;;;;;;;;;;;23.60;99.90;;;;;;5074184;28;19955;-72
2022/01/05 01:52:42;;;;;;;;;;;23.70;99.90;;;;;;5074150;28;19969;-73
2022/01/05 01:55:10;;;;;;;;;;;23.80;99.90;;;;;;5073991;28;19909;-72
2022/01/05 01:57:39;;;;;;;;;;;23.90;99.90;;;;;;5073965;28;20363;-72
2022/01/05 02:00:06;;;;;;;;;;;23.90;99.90;;;;;;5073747;28;20394;-72
2022/01/05 02:02:33;;;;;;;;;;;24.20;99.90;;;;;;5073880;28;19916;-72
2022/01/05 02:05:00;;;;;;;;;;;24.00;99.90;;;;;;5073801;28;19912;-72
2022/01/05 02:07:26;;;;;;;;;;;23.90;99.90;;;;;;5073888;28;19955;-71
2022/01/05 02:09:53;;;;;;;;;;;23.90;99.90;;;;;;5073225;28;19990;-72
2022/01/05 02:12:22;;;;;;;;;;;24.00;99.90;;;;;;5073722;28;19912;-73
2022/01/05 02:14:48;;;;;;;;;;;24.20;99.90;;;;;;5073731;28;19982;-72
2022/01/05 02:17:19;;;;;;;;;;;24.40;99.90;;;;;;5073517;28;20271;-71
2022/01/05 02:19:46;;;;;;;;;;;24.50;99.90;;;;;;5073383;28;19916;-72
2022/01/05 02:22:13;;;;;;;;;;;24.70;99.90;;;;;;5073473;28;20003;-72
2022/01/05 02:24:41;;;;;;;;;;;24.80;99.90;;;;;;5073315;28;19912;-72
2022/01/05 02:27:08;;;;;;;;;;;24.70;99.90;;;;;;5073359;28;20275;-72
2022/01/05 02:29:35;;;;;;;;;;;24.80;99.90;;;;;;5073014;28;20380;-72
2022/01/05 02:32:03;;;;;;;;;;;24.70;99.90;;;;;;5072851;28;20249;-72
2022/01/05 02:34:29;;;;;;;;;;;24.60;99.90;;;;;;5073287;28;19912;-72
2022/01/05 02:36:59;;;;;;;;;;;24.50;99.90;;;;;;5073092;28;19920;-72
2022/01/05 02:39:26;;;;;;;;;;;24.50;99.90;;;;;;5073047;28;19912;-72
2022/01/05 02:41:52;;;;;;;;;;;24.50;99.90;;;;;;5072869;28;19908;-71
2022/01/05 02:44:19;;;;;;;;;;;24.70;99.90;;;;;;5072665;28;19909;-71
2022/01/05 02:46:46;;;;;;;;;;;24.60;99.90;;;;;;5072720;28;19987;-72
2022/01/05 02:49:12;;;;;;;;;;;24.50;99.90;;;;;;5072625;28;19916;-72
2022/01/05 02:51:39;;;;;;;;;;;24.40;99.90;;;;;;5072647;28;19915;-72
2022/01/05 02:54:06;;;;;;;;;;;24.50;99.90;;;;;;5072339;28;19970;-72
2022/01/05 02:56:32;;;;;;;;;;;24.50;99.90;;;;;;5072413;28;19955;-72
2022/01/05 02:58:59;;;;;;;;;;;24.50;99.90;;;;;;5072535;28;19970;-72
2022/01/05 03:01:25;;;;;;;;;;;24.40;99.90;;;;;;5072884;28;19908;-72
2022/01/05 03:03:52;;;;;;;;;;;24.30;99.90;;;;;;5072648;28;20042;-72
2022/01/05 03:06:19;;;;;;;;;;;24.20;99.90;;;;;;5072797;28;19924;-72
2022/01/05 03:08:45;;;;;;;;;;;24.20;99.90;;;;;;5072700;28;19915;-72
2022/01/05 03:11:12;;;;;;;;;;;24.30;99.90;;;;;;5072756;28;19927;-72
2022/01/05 03:13:39;;;;;;;;;;;24.40;99.90;;;;;;5072653;28;19947;-72
2022/01/05 03:16:05;;;;;;;;;;;24.50;99.90;;;;;;5072394;28;19955;-72
2022/01/05 03:18:32;;;;;;;;;;;24.60;99.90;;;;;;5081803;28;19970;-72
2022/01/05 03:20:58;;;;;;;;;;;24.70;99.90;;;;;;5090879;28;19912;-72
2022/01/05 03:23:25;;;;;;;;;;;24.70;99.90;;;;;;5092608;28;20362;-72
2022/01/05 03:25:54;;;;;;;;;;;24.70;99.90;;;;;;5092490;28;20378;-72
2022/01/05 03:28:21;;;;;;;;;;;24.70;99.90;;;;;;5092590;28;19995;-72
2022/01/05 03:30:47;;;;;;;;;;;24.60;99.90;;;;;;5092745;28;19908;-72
2022/01/05 03:33:20;;;;;;;;;;;24.40;99.90;;;;;;5092774;28;20275;-72
2022/01/05 03:35:47;;;;;;;;;;;24.10;99.90;;;;;;5092466;28;19953;-72
2022/01/05 03:38:15;;;;;;;;;;;24.00;99.90;;;;;;5092394;28;19977;-72
2022/01/05 03:40:43;;;;;;;;;;;23.90;99.90;;;;;;5092521;28;19908;-72
2022/01/05 03:43:10;;;;;;;;;;;23.80;99.90;;;;;;5091769;28;20386;-72
2022/01/05 03:45:37;;;;;;;;;;;23.60;99.90;;;;;;5092561;28;19912;-73
2022/01/05 03:48:05;;;;;;;;;;;23.50;99.90;;;;;;5091694;28;19908;-73
2022/01/05 03:50:32;;;;;;;;;;;23.40;99.90;;;;;;5092227;28;19909;-73
2022/01/05 03:52:58;;;;;;;;;;;23.40;99.90;;;;;;5092130;28;20004;-73
2022/01/05 03:55:25;;;;;;;;;;;23.30;99.90;;;;;;5092285;28;19912;-73
2022/01/05 03:57:52;;;;;;;;;;;23.40;99.90;;;;;;5092021;28;19916;-72
2022/01/05 04:00:19;;;;;;;;;;;23.20;99.90;;;;;;5092560;28;19955;-73
2022/01/05 04:02:45;;;;;;;;;;;23.20;99.90;;;;;;5092220;28;19908;-73
2022/01/05 04:05:13;;;;;;;;;;;23.10;99.90;;;;;;5091051;28;19912;-73
2022/01/05 04:07:39;;;;;;;;;;;23.10;99.90;;;;;;5092086;28;20007;-73
2022/01/05 04:10:06;;;;;;;;;;;23.10;99.90;;;;;;5102967;28;20006;-73
2022/01/05 04:12:33;;;;;;;;;;;23.10;99.90;;;;;;5094373;28;19908;-73
2022/01/05 04:15:00;;;;;;;;;;;23.00;99.90;;;;;;5112414;28;19974;-72
2022/01/05 04:17:26;;;;;;;;;;;22.90;99.90;;;;;;5112397;28;19923;-72
2022/01/05 04:19:53;;;;;;;;;;;22.90;99.90;;;;;;5112261;28;19908;-73
2022/01/05 04:22:20;;;;;;;;;;;22.90;99.90;;;;;;5112775;28;19916;-72
2022/01/05 04:24:47;;;;;;;;;;;22.90;99.90;;;;;;5112125;28;19935;-73
2022/01/05 04:27:15;;;;;;;;;;;22.90;99.90;;;;;;5112467;28;19954;-72
2022/01/05 04:29:42;;;;;;;;;;;23.00;99.90;;;;;;5112271;28;19927;-73
2022/01/05 04:32:09;;;;;;;;;;;23.00;99.90;;;;;;5111981;28;19908;-72
2022/01/05 04:34:36;;;;;;;;;;;23.10;99.90;;;;;;5112502;28;19958;-72
2022/01/05 04:37:03;;;;;;;;;;;23.10;99.90;;;;;;5112208;28;20298;-73
2022/01/05 04:39:30;;;;;;;;;;;23.20;99.90;;;;;;5112088;28;19930;-73
2022/01/05 04:41:56;;;;;;;;;;;23.20;99.90;;;;;;5112203;28;19915;-73
2022/01/05 04:44:23;;;;;;;;;;;23.30;99.90;;;;;;5112516;28;19908;-73
2022/01/05 04:46:49;;;;;;;;;;;23.30;99.90;;;;;;5112263;28;19943;-73
2022/01/05 04:49:16;;;;;;;;;;;23.40;99.90;;;;;;5112323;28;19908;-73
2022/01/05 04:51:43;;;;;;;;;;;23.40;99.90;;;;;;5112124;28;19907;-72
2022/01/05 04:54:09;;;;;;;;;;;23.40;99.90;;;;;;5113288;28;19964;-73
2022/01/05 04:56:36;;;;;;;;;;;23.20;99.90;;;;;;5115613;28;19911;-72
2022/01/05 04:59:03;;;;;;;;;;;23.30;99.90;;;;;;5115630;28;19916;-72
2022/01/05 05:01:30;;;;;;;;;;;23.30;99.90;;;;;;5115695;28;19912;-71
2022/01/05 05:03:56;;;;;;;;;;;23.20;99.90;;;;;;5115471;28;19928;-71
2022/01/05 05:06:24;;;;;;;;;;;23.30;99.90;;;;;;5115876;28;19960;-71
2022/01/05 05:08:50;;;;;;;;;;;23.50;99.90;;;;;;5115510;28;19907;-72
2022/01/05 05:11:17;;;;;;;;;;;23.50;99.90;;;;;;5115329;28;19919;-72
2022/01/05 05:13:44;;;;;;;;;;;23.60;99.90;;;;;;5115572;28;19908;-71
2022/01/05 05:16:10;;;;;;;;;;;23.60;99.90;;;;;;5115356;28;19908;-71
2022/01/05 05:18:37;;;;;;;;;;;23.60;99.90;;;;;;5115204;28;20366;-72
2022/01/05 05:21:04;;;;;;;;;;;23.70;99.90;;;;;;5115291;28;19931;-72
2022/01/05 05:23:30;;;;;;;;;;;23.80;99.90;;;;;;5115051;28;20377;-72
2022/01/05 05:25:57;;;;;;;;;;;23.80;99.90;;;;;;5115005;28;19908;-72
2022/01/05 05:28:24;;;;;;;;;;;23.80;99.90;;;;;;5092051;28;19919;-71
2022/01/05 05:30:50;;;;;;;;;;;23.90;99.90;;;;;;5080908;28;20439;-72
2022/01/05 05:33:17;;;;;;;;;;;24.00;99.90;;;;;;5074481;28;19920;-72
2022/01/05 05:35:43;;;;;;;;;;;24.00;99.90;;;;;;5074509;28;19912;-71
2022/01/05 05:38:12;;;;;;;;;;;24.00;99.90;;;;;;5073904;28;19960;-72
2022/01/05 05:40:38;;;;;;;;;;;24.00;99.90;;;;;;5074100;28;19923;-72
2022/01/05 05:43:05;;;;;;;;;;;24.10;99.90;;;;;;5089565;28;20011;-72
2022/01/05 05:45:32;;;;;;;;;;;24.10;99.90;;;;;;5074211;28;19908;-72
2022/01/05 05:47:58;;;;;;;;;;;24.00;99.90;;;;;;5073896;28;19913;-72
2022/01/05 05:50:25;;;;;;;;;;;24.00;99.90;;;;;;5074127;28;20260;-72
2022/01/05 05:52:52;;;;;;;;;;;24.00;99.90;;;;;;5071304;28;19913;-72
2022/01/05 05:55:18;;;;;;;;;;;23.90;99.90;;;;;;5072131;28;19909;-72
2022/01/05 05:57:45;;;;;;;;;;;23.90;99.90;;;;;;5071718;28;19916;-72
2022/01/05 06:00:12;;;;;;;;;;;23.90;99.90;;;;;;5071870;28;19914;-72
2022/01/05 06:02:38;;;;;;;;;;;23.90;99.90;;;;;;5071801;28;19908;-72
2022/01/05 06:05:05;;;;;;;;;;;24.00;99.90;;;;;;5071134;28;19920;-72
2022/01/05 06:07:32;;;;;;;;;;;24.10;99.90;;;;;;5071366;28;20306;-72
2022/01/05 06:09:59;;;;;;;;;;;24.10;99.90;;;;;;5071167;28;19956;-72
2022/01/05 06:12:26;;;;;;;;;;;24.10;99.90;;;;;;5071929;28;20021;-72
2022/01/05 06:14:53;;;;;;;;;;;24.20;99.90;;;;;;5071630;28;20053;-72
2022/01/05 06:17:20;;;;;;;;;;;24.20;99.90;;;;;;5071177;28;19932;-72
2022/01/05 06:19:50;;;;;;;;;;;24.20;99.90;;;;;;5070551;28;20243;-71
2022/01/05 06:22:17;;;;;;;;;;;24.20;99.90;;;;;;5071392;28;19948;-72
2022/01/05 06:24:44;;;;;;;;;;;24.10;99.90;;;;;;5071670;28;19913;-72
2022/01/05 06:27:11;;;;;;;;;;;24.10;99.90;;;;;;5087341;28;20286;-72
2022/01/05 06:29:40;;;;;;;;;;;24.10;99.90;;;;;;5071395;28;19944;-72
2022/01/05 06:32:07;;;;;;;;;;;24.10;99.90;;;;;;5070767;28;19926;-72
2022/01/05 06:34:34;;;;;;;;;;;24.20;99.90;;;;;;5071437;28;19908;-72
2022/01/05 06:37:00;;;;;;;;;;;24.10;99.90;;;;;;5071116;28;19909;-72
2022/01/05 06:39:27;;;;;;;;;;;24.00;99.90;;;;;;5071352;28;20328;-72
2022/01/05 06:41:54;;;;;;;;;;;24.00;99.90;;;;;;5070995;28;19913;-72
2022/01/05 06:44:20;;;;;;;;;;;24.10;99.90;;;;;;5070759;28;19942;-72
2022/01/05 06:46:47;;;;;;;;;;;24.10;99.90;;;;;;5071063;28;19913;-72
2022/01/05 06:49:14;;;;;;;;;;;24.10;99.90;;;;;;5070966;28;19916;-72
2022/01/05 06:51:41;;;;;;;;;;;24.00;99.90;;;;;;5070977;28;19909;-72
2022/01/05 06:54:07;;;;;;;;;;;24.10;99.90;;;;;;5070458;28;19916;-72
2022/01/05 06:56:34;;;;;;;;;;;24.00;99.90;;;;;;5070462;28;19961;-72
2022/01/05 06:59:00;;;;;;;;;;;24.00;99.90;;;;;;5070839;28;20061;-72
2022/01/05 07:01:27;;;;;;;;;;;24.00;99.90;;;;;;5070753;28;20275;-71
2022/01/05 07:03:54;;;;;;;;;;;24.00;99.90;;;;;;5070449;28;19912;-72
2022/01/05 07:06:20;;;;;;;;;;;24.00;99.90;;;;;;5070657;28;19913;-72
2022/01/05 07:08:47;;;;;;;;;;;24.10;99.90;;;;;;5070535;28;20359;-72
2022/01/05 07:11:14;;;;;;;;;;;24.10;99.90;;;;;;5070372;28;20022;-72
2022/01/05 07:13:40;;;;;;;;;;;24.10;99.90;;;;;;5070626;28;19950;-72
2022/01/05 07:16:07;;;;;;;;;;;24.20;99.90;;;;;;5070359;28;19908;-72
2022/01/05 07:18:34;;;;;;;;;;;24.20;99.90;;;;;;5069784;28;20494;-72
2022/01/05 07:21:00;;;;;;;;;;;24.20;99.90;;;;;;5070412;28;19919;-72
2022/01/05 07:23:27;;;;;;;;;;;24.20;99.90;;;;;;5069951;28;19948;-71
2022/01/05 07:25:53;;;;;;;;;;;24.30;99.90;;;;;;5070297;28;19919;-72
2022/01/05 07:28:20;;;;;;;;;;;24.30;99.90;;;;;;5070552;28;19912;-72
2022/01/05 07:30:47;;;;;;;;;;;24.30;99.90;;;;;;5070438;28;20047;-72
2022/01/05 07:33:13;;;;;;;;;;;24.40;99.90;;;;;;5070378;28;19962;-72
2022/01/05 07:35:40;;;;;;;;;;;24.40;99.90;;;;;;5070169;28;19912;-72
2022/01/05 07:38:07;;;;;;;;;;;24.40;99.90;;;;;;5070001;28;19921;-72
2022/01/05 07:40:33;;;;;;;;;;;24.30;99.90;;;;;;5070313;28;19913;-72
2022/01/05 07:43:01;;;;;;;;;;;24.30;99.90;;;;;;5070262;28;19916;-72
2022/01/05 07:45:28;;;;;;;;;;;24.30;99.90;;;;;;5070242;28;19909;-72
2022/01/05 07:47:54;;;;;;;;;;;24.30;99.90;;;;;;5070092;28;20294;-72
2022/01/05 07:50:21;;;;;;;;;;;24.30;99.90;;;;;;5069550;28;19992;-72
2022/01/05 07:52:48;;;;;;;;;;;24.30;99.90;;;;;;5070021;28;20055;-72
2022/01/05 07:55:14;;;;;;;;;;;24.30;99.90;;;;;;5069777;28;20364;-72
2022/01/05 07:57:41;;;;;;;;;;;24.40;99.90;;;;;;5070169;28;19921;-72
2022/01/05 08:00:08;;;;;;;;;;;24.40;99.90;;;;;;5069927;28;19909;-72
2022/01/05 08:02:35;;;;;;;;;;;24.20;99.90;;;;;;5069569;28;19909;-72
2022/01/05 08:05:02;;;;;;;;;;;24.00;99.90;;;;;;5069976;28;19960;-72
2022/01/05 08:07:29;;;;;;;;;;;23.80;99.90;;;;;;5071692;28;19920;-71
2022/01/05 08:09:56;;;;;;;;;;;23.70;99.90;;;;;;5071753;28;20310;-72
2022/01/05 08:12:22;;;;;;;;;;;23.60;99.90;;;;;;5072241;28;19909;-72
2022/01/05 08:14:49;;;;;;;;;;;23.60;99.90;;;;;;5072198;28;19915;-72
2022/01/05 08:17:16;;;;;;;;;;;23.60;99.90;;;;;;5070472;28;20024;-72
2022/01/05 08:19:43;;;;;;;;;;;23.60;99.90;;;;;;5070156;28;19913;-72
2022/01/05 08:22:09;;;;;;;;;;;23.60;99.90;;;;;;5069732;28;19912;-72
2022/01/05 08:24:36;;;;;;;;;;;23.50;99.90;;;;;;5070012;28;20359;-72
2022/01/05 08:27:03;;;;;;;;;;;23.60;99.90;;;;;;5070143;28;19913;-72
2022/01/05 08:29:29;;;;;;;;;;;23.60;99.90;;;;;;5072217;28;20260;-72
2022/01/05 08:31:56;;;;;;;;;;;23.60;99.90;;;;;;5074878;28;20371;-72
2022/01/05 08:34:23;;;;;;;;;;;23.60;99.90;;;;;;5075823;28;19931;-72
2022/01/05 08:36:49;;;;;;;;;;;23.70;99.90;;;;;;5075825;28;19909;-72
2022/01/05 08:39:16;;;;;;;;;;;23.70;99.90;;;;;;5075624;28;19923;-72
2022/01/05 08:41:42;;;;;;;;;;;23.60;99.90;;;;;;5075623;28;19966;-72
2022/01/05 08:44:11;;;;;;;;;;;23.60;99.90;;;;;;5075306;28;19954;-72
2022/01/05 08:46:38;;;;;;;;;;;23.60;99.90;;;;;;5075430;28;19909;-72
2022/01/05 08:49:04;;;;;;;;;;;23.60;99.90;;;;;;5075448;28;20363;-72
2022/01/05 08:51:31;;;;;;;;;;;23.60;99.90;;;;;;5075282;28;20334;-72
2022/01/05 08:53:58;;;;;;;;;;;23.70;99.90;;;;;;5075238;28;19909;-72
2022/01/05 08:56:25;;;;;;;;;;;23.70;99.90;;;;;;5075437;28;19909;-72
2022/01/05 08:58:52;;;;;;;;;;;23.60;99.90;;;;;;5075378;28;20299;-72
2022/01/05 09:01:18;;;;;;;;;;;23.60;99.90;;;;;;5075332;28;19962;-72
2022/01/05 09:03:45;;;;;;;;;;;23.60;99.90;;;;;;5075235;28;19908;-72
2022/01/05 09:06:12;;;;;;;;;;;23.60;99.90;;;;;;5075091;28;20016;-72
2022/01/05 09:08:38;;;;;;;;;;;23.60;99.90;;;;;;5075210;28;20375;-72
2022/01/05 09:11:08;;;;;;;;;;;23.60;99.90;;;;;;5074927;28;20065;-72
2022/01/05 09:13:35;;;;;;;;;;;23.60;99.90;;;;;;5074969;28;19916;-72
2022/01/05 09:16:02;;;;;;;;;;;23.60;99.90;;;;;;5074605;28;19909;-72
2022/01/05 09:18:29;;;;;;;;;;;23.60;99.90;;;;;;5074929;28;19920;-72
2022/01/05 09:20:56;;;;;;;;;;;23.50;99.90;;;;;;5074989;28;19913;-72
2022/01/05 09:23:23;;;;;;;;;;;23.50;99.90;;;;;;5074973;28;20003;-72
2022/01/05 09:25:51;;;;;;;;;;;23.50;99.90;;;;;;5074520;28;20490;-72
2022/01/05 09:28:17;;;;;;;;;;;23.50;99.90;;;;;;5074728;28;19923;-72
2022/01/05 09:30:46;;;;;;;;;;;23.50;99.90;;;;;;5074629;28;20347;-72
2022/01/05 09:33:15;;;;;;;;;;;23.50;99.90;;;;;;5074663;28;20283;-72
2022/01/05 09:35:43;;;;;;;;;;;23.50;99.90;;;;;;5074689;28;19908;-72
2022/01/05 09:38:22;;;;;;;;;;;23.60;99.90;;;;;;5074279;28;19966;-72
2022/01/05 09:43:47;;;;;;;;;;;23.50;99.90;;;;;;5074519;28;19923;-72
2022/01/05 09:46:35;;;;;;;;;;;23.50;99.90;;;;;;5074645;28;19909;-72
2022/01/05 09:49:02;;;;;;;;;;;23.60;99.90;;;;;;5074443;28;20011;-72
2022/01/05 09:51:30;;;;;;;;;;;23.60;99.90;;;;;;5074078;28;19912;-72
2022/01/05 09:53:59;;;;;;;;;;;23.50;99.90;;;;;;5074146;28;19908;-72
2022/01/05 09:56:25;;;;;;;;;;;23.50;99.90;;;;;;5074278;28;19919;-72
2022/01/05 09:58:52;;;;;;;;;;;23.50;99.90;;;;;;5074084;28;19979;-72
2022/01/05 10:01:19;;;;;;;;;;;23.50;99.90;;;;;;5074212;28;19908;-72
2022/01/05 10:03:46;;;;;;;;;;;23.50;99.90;;;;;;5073875;28;19916;-72
2022/01/05 10:06:13;;;;;;;;;;;23.50;99.90;;;;;;5073838;28;19916;-72
2022/01/05 10:08:39;;;;;;;;;;;23.50;99.90;;;;;;5073924;28;19924;-72
2022/01/05 10:11:09;;;;;;;;;;;23.50;99.90;;;;;;5073439;28;19966;-72
2022/01/05 10:13:36;;;;;;;;;;;23.50;99.90;;;;;;5073901;28;20354;-72
2022/01/05 10:16:02;;;;;;;;;;;23.50;99.90;;;;;;5073584;28;19909;-72
2022/01/05 10:18:38;;;;;;;;;;;23.50;99.90;;;;;;5073728;28;20015;-72
2022/01/05 10:21:06;;;;;;;;;;;23.60;99.90;;;;;;5073868;28;19944;-72
2022/01/05 10:23:41;;;;;;;;;;;23.50;99.90;;;;;;5073638;28;20270;-72
2022/01/05 10:26:19;;;;;;;;;;;23.50;99.90;;;;;;5072969;28;19920;-72
2022/01/05 10:28:46;;;;;;;;;;;23.50;99.90;;;;;;5073516;28;20394;-72
2022/01/05 10:31:14;;;;;;;;;;;23.50;99.90;;;;;;5073290;28;19913;-72
2022/01/05 10:33:41;;;;;;;;;;;23.50;99.90;;;;;;5073455;28;19954;-72
2022/01/05 10:36:08;;;;;;;;;;;23.50;99.90;;;;;;5073315;28;20053;-72
2022/01/05 10:38:34;;;;;;;;;;;23.50;99.90;;;;;;5073214;28;19924;-72
2022/01/05 10:41:20;;;;;;;;;;;23.50;99.90;;;;;;5072738;28;19959;-72
2022/01/05 10:44:05;;;;;;;;;;;23.60;99.90;;;;;;5071730;28;19908;-72
2022/01/05 10:46:33;;;;;;;;;;;23.50;99.90;;;;;;5073252;28;19932;-72
2022/01/05 10:49:00;;;;;;;;;;;23.50;99.90;;;;;;5073229;28;19920;-72
2022/01/05 10:51:31;;;;;;;;;;;23.50;99.90;;;;;;5105366;28;19954;-72
2022/01/05 10:54:10;;;;;;;;;;;23.50;99.90;;;;;;5072847;28;19908;-72
2022/01/05 10:56:37;;;;;;;;;;;23.50;99.90;;;;;;5072613;28;19920;-72
2022/01/05 10:59:04;;;;;;;;;;;23.50;99.90;;;;;;5072854;28;19916;-72
2022/01/05 11:01:31;;;;;;;;;;;23.40;99.90;;;;;;5072690;28;19991;-72
2022/01/05 11:03:58;;;;;;;;;;;23.50;99.90;;;;;;5072803;28;19954;-72
2022/01/05 11:06:25;;;;;;;;;;;23.50;99.90;;;;;;5072674;28;19966;-71
2022/01/05 11:09:00;;;;;;;;;;;23.50;99.90;;;;;;5072764;28;20369;-72
2022/01/05 11:11:30;;;;;;;;;;;23.50;99.90;;;;;;5072922;28;20011;-71
2022/01/05 11:13:57;;;;;;;;;;;23.50;99.90;;;;;;5072750;28;19908;-72
2022/01/05 11:16:29;;;;;;;;;;;23.50;99.90;;;;;;5073209;28;19916;-72
2022/01/05 11:19:13;;;;;;;;;;;23.50;99.90;;;;;;5072569;28;20390;-71
2022/01/05 11:21:41;;;;;;;;;;;23.50;99.90;;;;;;5072617;28;20426;-72
2022/01/05 11:24:07;;;;;;;;;;;23.50;99.90;;;;;;5072493;28;19916;-72
2022/01/05 11:26:35;;;;;;;;;;;23.50;99.90;;;;;;5072040;28;19908;-72
2022/01/05 11:29:06;;;;;;;;;;;23.50;99.90;;;;;;5072742;28;19910;-73
2022/01/05 11:31:32;;;;;;;;;;;23.40;99.90;;;;;;5072538;28;19908;-73
2022/01/05 11:33:59;;;;;;;;;;;23.40;99.90;;;;;;5072306;28;19947;-72
2022/01/05 11:36:26;;;;;;;;;;;23.20;99.90;;;;;;5072416;28;19915;-73
2022/01/05 11:38:53;;;;;;;;;;;23.10;99.90;;;;;;5072550;28;19924;-73
2022/01/05 11:41:20;;;;;;;;;;;23.00;99.90;;;;;;5072104;28;20279;-73
2022/01/05 11:43:47;;;;;;;;;;;22.70;99.90;;;;;;5072189;28;19908;-72
2022/01/05 11:46:23;;;;;;;;;;;22.50;99.90;;;;;;5072136;28;19908;-73
2022/01/05 11:48:59;;;;;;;;;;;22.40;99.90;;;;;;5072746;28;19914;-74
2022/01/05 11:51:32;;;;;;;;;;;22.30;99.90;;;;;;5072254;28;19962;-74
2022/01/05 11:54:19;;;;;;;;;;;22.20;99.90;;;;;;5072146;28;19915;-76
2022/01/05 11:56:51;;;;;;;;;;;22.10;99.90;;;;;;5071655;28;20305;-74
2022/01/05 11:59:20;;;;;;;;;;;22.10;99.90;;;;;;5071711;28;19978;-73
2022/01/05 12:02:07;;;;;;;;;;;22.00;99.90;;;;;;5072097;28;20027;-73
2022/01/05 12:04:56;;;;;;;;;;;22.00;99.90;;;;;;5107125;28;19940;-75
2022/01/05 12:07:38;;;;;;;;;;;22.00;99.90;;;;;;5076276;28;19930;-75
2022/01/05 12:10:21;;;;;;;;;;;22.00;99.90;;;;;;5075834;28;20394;-74
2022/01/05 12:13:06;;;;;;;;;;;22.00;99.90;;;;;;5076198;28;19909;-76
2022/01/05 12:15:41;;;;;;;;;;;21.90;99.90;;;;;;5076038;28;20061;-76
2022/01/05 12:18:08;;;;;;;;;;;21.90;99.90;;;;;;5075738;28;19916;-75
2022/01/05 12:20:36;;;;;;;;;;;21.90;99.90;;;;;;5075670;28;19908;-73
2022/01/05 12:23:18;;;;;;;;;;;22.00;99.90;;;;;;5075775;28;20286;-75
2022/01/05 12:26:03;;;;;;;;;;;22.00;99.90;;;;;;5075837;28;19908;-74
2022/01/05 12:28:31;;;;;;;;;;;22.00;99.90;;;;;;5075978;28;19916;-75
2022/01/05 12:30:58;;;;;;;;;;;22.00;99.90;;;;;;5075950;28;19909;-73
2022/01/05 12:33:25;;;;;;;;;;;22.00;99.90;;;;;;5075747;28;19912;-74
2022/01/05 12:35:53;;;;;;;;;;;22.10;99.90;;;;;;5075306;28;19915;-73
2022/01/05 12:38:31;;;;;;;;;;;22.10;99.90;;;;;;5075617;28;19964;-75
2022/01/05 12:40:58;;;;;;;;;;;22.10;99.90;;;;;;5075567;28;19915;-74
2022/01/05 12:43:25;;;;;;;;;;;22.10;99.90;;;;;;5075645;28;20465;-76
2022/01/05 12:45:55;;;;;;;;;;;22.20;99.90;;;;;;5075285;28;20267;-75
2022/01/05 12:48:40;;;;;;;;;;;22.20;99.90;;;;;;5075443;28;19916;-76
2022/01/05 12:51:12;;;;;;;;;;;22.20;99.90;;;;;;5075277;28;19909;-75
2022/01/05 12:53:42;;;;;;;;;;;22.20;99.90;;;;;;5075379;28;19908;-76
2022/01/05 12:56:08;;;;;;;;;;;22.30;99.90;;;;;;5075204;28;19961;-75
2022/01/05 12:58:35;;;;;;;;;;;22.30;99.90;;;;;;5075361;28;20015;-75
2022/01/05 13:01:04;;;;;;;;;;;22.30;99.90;;;;;;5075220;28;20386;-75
2022/01/05 13:03:34;;;;;;;;;;;22.30;99.90;;;;;;5075224;28;19909;-75
2022/01/05 13:06:13;;;;;;;;;;;22.30;99.90;;;;;;5074879;28;19908;-75
2022/01/05 13:08:47;;;;;;;;;;;22.30;99.90;;;;;;5075280;28;20045;-73
2022/01/05 13:11:37;;;;;;;;;;;22.30;99.90;;;;;;5054978;28;19929;-75
2022/01/05 13:14:14;;;;;;;;;;;22.20;99.90;;;;;;5054842;28;19909;-76
2022/01/05 13:16:42;;;;;;;;;;;22.30;99.90;;;;;;5055162;28;19916;-76
2022/01/05 13:19:16;;;;;;;;;;;22.20;99.90;;;;;;5055096;28;19924;-77
2022/01/05 13:21:43;;;;;;;;;;;22.20;99.90;;;;;;5054825;28;20268;-73
2022/01/05 13:24:10;;;;;;;;;;;22.20;99.90;;;;;;5054586;28;19913;-77
2022/01/05 13:26:36;;;;;;;;;;;22.20;99.90;;;;;;5054823;28;19913;-77
2022/01/05 13:29:22;;;;;;;;;;;22.20;99.90;;;;;;5054746;28;20270;-76
2022/01/05 13:31:55;;;;;;;;;;;22.20;99.90;;;;;;5054489;28;20394;-78
2022/01/05 13:34:29;;;;;;;;;;;22.10;99.90;;;;;;5054672;28;19916;-78
2022/01/05 13:36:56;;;;;;;;;;;22.20;99.90;;;;;;5054693;28;19916;-78
2022/01/05 13:39:43;;;;;;;;;;;22.10;99.90;;;;;;5054639;28;20004;-77
2022/01/05 13:42:29;;;;;;;;;;;22.20;99.90;;;;;;5054418;28;20256;-76
2022/01/05 13:44:55;;;;;;;;;;;22.10;99.90;;;;;;5054397;28;20299;-77
2022/01/05 13:47:23;;;;;;;;;;;22.10;99.90;;;;;;5054348;28;19913;-77
2022/01/05 13:50:06;;;;;;;;;;;22.10;99.90;;;;;;5054089;28;19958;-77
2022/01/05 13:52:33;;;;;;;;;;;22.20;99.90;;;;;;5054097;28;19956;-78
2022/01/05 13:55:00;;;;;;;;;;;22.20;99.90;;;;;;5054078;28;19919;-74
2022/01/05 13:57:30;;;;;;;;;;;22.20;99.90;;;;;;5054230;28;19920;-77
2022/01/05 14:00:01;;;;;;;;;;;22.10;99.90;;;;;;5053986;28;19920;-77
2022/01/05 14:02:28;;;;;;;;;;;21.90;99.90;;;;;;5054156;28;20322;-77
2022/01/05 14:04:56;;;;;;;;;;;21.80;99.90;;;;;;5053775;28;19908;-77
2022/01/05 14:07:24;;;;;;;;;;;21.70;99.90;;;;;;5054179;28;19948;-78
2022/01/05 14:10:11;;;;;;;;;;;21.70;99.90;;;;;;5062335;28;19917;-77
2022/01/05 14:12:45;;;;;;;;;;;21.70;99.90;;;;;;5074044;28;20412;-78
2022/01/05 14:15:12;;;;;;;;;;;21.70;99.90;;;;;;5073707;28;19972;-77
2022/01/05 14:17:39;;;;;;;;;;;21.80;99.90;;;;;;5073905;28;20367;-77
2022/01/05 14:20:19;;;;;;;;;;;21.90;99.90;;;;;;5073321;28;19916;-77
2022/01/05 14:23:06;;;;;;;;;;;21.90;99.90;;;;;;5073898;28;19909;-77
2022/01/05 14:25:33;;;;;;;;;;;21.90;99.90;;;;;;5073480;28;20349;-78